sensor_id;sensor_type;location;lat;lon;timestamp;P1;durP1;ratioP1;P2;durP2;ratioP2
47009;SDS011;59230;54.164;-3.124;2023-10-08T18:38:54;57.20;;;20.70;;
47009;SDS011;59230;54.164;-3.124;2023-10-08T18:41:21;72.45;;;21.20;;
47009;SDS011;59230;54.164;-3.124;2023-10-08T18:43:50;64.18;;;19.55;;
47009;SDS011;59230;54.164;-3.124;2023-10-08T18:46:18;69.25;;;21.55;;
47009;SDS011;59230;54.164;-3.124;2023-10-08T18:48:45;66.25;;;19.48;;
47009;SDS011;59230;54.164;-3.124;2023-10-08T18:51:15;60.15;;;18.10;;
47009;SDS011;59230;54.164;-3.124;2023-10-08T18:53:45;57.33;;;18.67;;
47009;SDS011;59230;54.164;-3.124;2023-10-08T18:56:13;56.50;;;17.08;;
47009;SDS011;59230;54.164;-3.124;2023-10-08T18:58:44;59.92;;;17.23;;
47009;SDS011;59230;54.164;-3.124;2023-10-08T19:01:13;69.72;;;19.20;;
47009;SDS011;59230;54.164;-3.124;2023-10-08T19:03:40;56.15;;;18.17;;
47009;SDS011;59230;54.164;-3.124;2023-10-08T19:06:10;66.25;;;20.45;;
47009;SDS011;59230;54.164;-3.124;2023-10-08T19:08:37;71.68;;;22.67;;
47009;SDS011;59230;54.164;-3.124;2023-10-08T19:11:06;67.38;;;21.83;;
47009;SDS011;59230;54.164;-3.124;2023-10-08T19:16:07;54.05;;;16.92;;
47009;SDS011;59230;54.164;-3.124;2023-10-08T19:18:35;64.88;;;18.70;;
47009;SDS011;59230;54.164;-3.124;2023-10-08T19:21:08;66.40;;;17.95;;
47009;SDS011;59230;54.164;-3.124;2023-10-08T19:23:45;63.28;;;16.95;;
47009;SDS011;59230;54.164;-3.124;2023-10-08T19:26:12;71.28;;;18.23;;
47009;SDS011;59230;54.164;-3.124;2023-10-08T19:28:44;63.60;;;18.45;;
47009;SDS011;59230;54.164;-3.124;2023-10-08T19:31:17;60.03;;;17.33;;
47009;SDS011;59230;54.164;-3.124;2023-10-08T19:33:45;58.63;;;19.45;;
47009;SDS011;59230;54.164;-3.124;2023-10-08T19:36:12;63.92;;;18.52;;
47009;SDS011;59230;54.164;-3.124;2023-10-08T19:38:40;73.68;;;19.23;;
47009;SDS011;59230;54.164;-3.124;2023-10-08T19:41:18;56.13;;;18.25;;
47009;SDS011;59230;54.164;-3.124;2023-10-08T19:43:48;57.13;;;17.83;;
47009;SDS011;59230;54.164;-3.124;2023-10-08T19:46:20;51.72;;;19.05;;
47009;SDS011;59230;54.164;-3.124;2023-10-08T19:48:49;54.05;;;20.02;;
47009;SDS011;59230;54.164;-3.124;2023-10-08T19:51:16;62.47;;;19.40;;
47009;SDS011;59230;54.164;-3.124;2023-10-08T19:53:43;78.72;;;31.13;;
47009;SDS011;59230;54.164;-3.124;2023-10-08T19:56:16;68.68;;;24.20;;
47009;SDS011;59230;54.164;-3.124;2023-10-08T19:58:44;62.10;;;20.35;;
47009;SDS011;59230;54.164;-3.124;2023-10-08T20:01:11;72.30;;;19.92;;
47009;SDS011;59230;54.164;-3.124;2023-10-08T20:03:40;65.10;;;21.63;;
47009;SDS011;59230;54.164;-3.124;2023-10-08T20:06:06;61.05;;;19.60;;
47009;SDS011;59230;54.164;-3.124;2023-10-08T20:08:32;71.50;;;20.33;;
47009;SDS011;59230;54.164;-3.124;2023-10-08T20:11:00;69.13;;;19.70;;
47009;SDS011;59230;54.164;-3.124;2023-10-08T20:13:26;69.88;;;19.67;;
47009;SDS011;59230;54.164;-3.124;2023-10-08T20:15:52;89.40;;;27.10;;
47009;SDS011;59230;54.164;-3.124;2023-10-08T20:18:19;78.53;;;27.10;;
47009;SDS011;59230;54.164;-3.124;2023-10-08T20:20:53;77.63;;;23.67;;
47009;SDS011;59230;54.164;-3.124;2023-10-08T20:23:20;65.60;;;20.38;;
47009;SDS011;59230;54.164;-3.124;2023-10-08T20:25:47;68.43;;;21.83;;
47009;SDS011;59230;54.164;-3.124;2023-10-08T20:28:19;64.32;;;21.98;;
47009;SDS011;59230;54.164;-3.124;2023-10-08T20:30:48;77.80;;;21.90;;
47009;SDS011;59230;54.164;-3.124;2023-10-08T20:33:18;87.25;;;22.45;;
47009;SDS011;59230;54.164;-3.124;2023-10-08T20:35:46;65.05;;;22.15;;
47009;SDS011;59230;54.164;-3.124;2023-10-08T20:38:16;69.90;;;22.45;;
47009;SDS011;59230;54.164;-3.124;2023-10-08T20:40:42;73.20;;;22.08;;
47009;SDS011;59230;54.164;-3.124;2023-10-08T20:43:09;76.28;;;21.90;;
47009;SDS011;59230;54.164;-3.124;2023-10-08T20:45:37;80.38;;;23.60;;
47009;SDS011;59230;54.164;-3.124;2023-10-08T20:48:04;90.85;;;23.83;;
47009;SDS011;59230;54.164;-3.124;2023-10-08T20:50:32;88.28;;;23.77;;
47009;SDS011;59230;54.164;-3.124;2023-10-08T20:53:00;88.97;;;25.23;;
47009;SDS011;59230;54.164;-3.124;2023-10-08T20:55:31;75.32;;;21.65;;
47009;SDS011;59230;54.164;-3.124;2023-10-08T20:58:12;68.65;;;21.52;;
47009;SDS011;59230;54.164;-3.124;2023-10-08T21:00:40;57.05;;;18.20;;
47009;SDS011;59230;54.164;-3.124;2023-10-08T21:03:11;77.07;;;18.95;;
47009;SDS011;59230;54.164;-3.124;2023-10-08T21:05:39;67.10;;;17.38;;
47009;SDS011;59230;54.164;-3.124;2023-10-08T21:08:11;60.10;;;16.55;;
47009;SDS011;59230;54.164;-3.124;2023-10-08T21:10:38;65.50;;;16.15;;
47009;SDS011;59230;54.164;-3.124;2023-10-08T21:13:08;72.15;;;17.85;;
47009;SDS011;59230;54.164;-3.124;2023-10-08T21:15:35;60.42;;;16.88;;
47009;SDS011;59230;54.164;-3.124;2023-10-08T21:18:05;57.00;;;16.25;;
47009;SDS011;59230;54.164;-3.124;2023-10-08T21:20:32;61.70;;;17.05;;
47009;SDS011;59230;54.164;-3.124;2023-10-08T21:23:03;72.95;;;17.50;;
47009;SDS011;59230;54.164;-3.124;2023-10-08T21:25:30;54.38;;;16.33;;
47009;SDS011;59230;54.164;-3.124;2023-10-08T21:27:57;69.55;;;17.63;;
47009;SDS011;59230;54.164;-3.124;2023-10-08T21:30:27;60.92;;;17.42;;
47009;SDS011;59230;54.164;-3.124;2023-10-08T21:32:54;65.20;;;17.88;;
47009;SDS011;59230;54.164;-3.124;2023-10-08T21:35:22;63.15;;;16.65;;
47009;SDS011;59230;54.164;-3.124;2023-10-08T21:37:49;61.42;;;16.77;;
47009;SDS011;59230;54.164;-3.124;2023-10-08T21:40:15;60.63;;;17.10;;
47009;SDS011;59230;54.164;-3.124;2023-10-08T21:42:46;68.43;;;16.73;;
47009;SDS011;59230;54.164;-3.124;2023-10-08T21:45:14;62.28;;;17.63;;
47009;SDS011;59230;54.164;-3.124;2023-10-08T21:47:44;63.72;;;16.65;;
47009;SDS011;59230;54.164;-3.124;2023-10-08T21:50:15;65.72;;;17.98;;
47009;SDS011;59230;54.164;-3.124;2023-10-08T21:52:44;60.55;;;16.85;;
47009;SDS011;59230;54.164;-3.124;2023-10-08T21:55:14;67.30;;;17.40;;
47009;SDS011;59230;54.164;-3.124;2023-10-08T21:57:41;57.70;;;15.98;;
47009;SDS011;59230;54.164;-3.124;2023-10-08T22:00:08;67.80;;;16.35;;
47009;SDS011;59230;54.164;-3.124;2023-10-08T22:02:50;70.93;;;15.23;;
47009;SDS011;59230;54.164;-3.124;2023-10-08T22:05:20;48.95;;;13.40;;
47009;SDS011;59230;54.164;-3.124;2023-10-08T22:07:50;58.53;;;14.90;;
47009;SDS011;59230;54.164;-3.124;2023-10-08T22:10:17;68.20;;;14.90;;
47009;SDS011;59230;54.164;-3.124;2023-10-08T22:12:46;62.08;;;18.15;;
47009;SDS011;59230;54.164;-3.124;2023-10-08T22:15:14;75.53;;;21.67;;
47009;SDS011;59230;54.164;-3.124;2023-10-08T22:17:43;72.20;;;20.73;;
47009;SDS011;59230;54.164;-3.124;2023-10-08T22:20:11;120.05;;;39.60;;
47009;SDS011;59230;54.164;-3.124;2023-10-08T22:22:40;72.63;;;19.50;;
47009;SDS011;59230;54.164;-3.124;2023-10-08T22:25:09;65.38;;;15.98;;
47009;SDS011;59230;54.164;-3.124;2023-10-08T22:27:36;50.75;;;14.65;;
47009;SDS011;59230;54.164;-3.124;2023-10-08T22:30:06;55.60;;;14.48;;
47009;SDS011;59230;54.164;-3.124;2023-10-08T22:32:42;60.25;;;13.65;;
47009;SDS011;59230;54.164;-3.124;2023-10-08T22:35:08;58.78;;;14.27;;
47009;SDS011;59230;54.164;-3.124;2023-10-08T22:37:44;61.53;;;14.13;;
47009;SDS011;59230;54.164;-3.124;2023-10-08T22:40:27;63.50;;;15.15;;
47009;SDS011;59230;54.164;-3.124;2023-10-08T22:43:14;59.72;;;14.50;;
47009;SDS011;59230;54.164;-3.124;2023-10-08T22:45:51;55.78;;;16.15;;
47009;SDS011;59230;54.164;-3.124;2023-10-08T22:48:20;59.45;;;17.30;;
47009;SDS011;59230;54.164;-3.124;2023-10-08T22:51:24;64.03;;;18.23;;
47009;SDS011;59230;54.164;-3.124;2023-10-08T22:53:52;64.47;;;19.17;;
47009;SDS011;59230;54.164;-3.124;2023-10-08T22:56:22;87.80;;;23.20;;
47009;SDS011;59230;54.164;-3.124;2023-10-08T22:58:52;87.03;;;22.65;;
47009;SDS011;59230;54.164;-3.124;2023-10-08T23:01:20;82.18;;;18.98;;
47009;SDS011;59230;54.164;-3.124;2023-10-08T23:03:52;58.30;;;16.60;;
47009;SDS011;59230;54.164;-3.124;2023-10-08T23:06:22;61.00;;;16.88;;
47009;SDS011;59230;54.164;-3.124;2023-10-08T23:11:23;54.83;;;16.73;;
47009;SDS011;59230;54.164;-3.124;2023-10-08T23:13:49;56.85;;;17.55;;
47009;SDS011;59230;54.164;-3.124;2023-10-08T23:16:17;74.15;;;18.40;;
47009;SDS011;59230;54.164;-3.124;2023-10-08T23:18:46;52.78;;;16.92;;
47009;SDS011;59230;54.164;-3.124;2023-10-08T23:21:14;65.95;;;18.38;;
47009;SDS011;59230;54.164;-3.124;2023-10-08T23:23:42;73.40;;;18.30;;
47009;SDS011;59230;54.164;-3.124;2023-10-08T23:26:10;85.03;;;18.45;;
47009;SDS011;59230;54.164;-3.124;2023-10-08T23:28:40;80.40;;;18.50;;
47009;SDS011;59230;54.164;-3.124;2023-10-08T23:31:07;66.53;;;19.75;;
47009;SDS011;59230;54.164;-3.124;2023-10-08T23:33:39;66.50;;;18.70;;
47009;SDS011;59230;54.164;-3.124;2023-10-08T23:36:08;88.05;;;19.80;;
47009;SDS011;59230;54.164;-3.124;2023-10-08T23:38:53;83.55;;;19.25;;
47009;SDS011;59230;54.164;-3.124;2023-10-08T23:41:33;84.72;;;21.40;;
47009;SDS011;59230;54.164;-3.124;2023-10-08T23:44:16;86.10;;;21.90;;
47009;SDS011;59230;54.164;-3.124;2023-10-08T23:46:52;111.75;;;24.80;;
47009;SDS011;59230;54.164;-3.124;2023-10-08T23:49:38;102.07;;;26.00;;
47009;SDS011;59230;54.164;-3.124;2023-10-08T23:52:34;113.15;;;26.30;;
47009;SDS011;59230;54.164;-3.124;2023-10-08T23:55:02;91.70;;;25.70;;
47009;SDS011;59230;54.164;-3.124;2023-10-08T23:57:30;103.38;;;27.23;;
